Bellaire, Kansas
Current Conditions -  °F | °C
As of 1:55 AM on Friday 24 Oct 2014 (Local Time) from KCNK Reporting Station
Haze Haze  
Wind Chill: 61°   Ceiling: Unl
Heat Index: 61°   Visibility: 5mi
Dew Point: 59°   Wind: 9mph
Humidity: 93%   Direction: 190°S
Pressure: 30.02"   Gusts: NA
Location:  39.8283°N, 98.5606°W
Report Text: KCNK 240655Z AUTO 19008KT 5SM BR CLR 16/15 A3002 RMK AO2 SLP157 T01610150
Loading
Personal Weather Stations






























Interactive Weather Map
Tropical Storm Tracking
New forecast layout! Learn more

10-Day Weather Forecast

Advertisements
Track Severe Weather on mobile